createdAt,value
2022-10-03T00:00:40.153Z,943.93
2022-10-03T00:01:40.652Z,943.91
2022-10-03T00:02:41.470Z,943.95
2022-10-03T00:03:41.716Z,943.92
2022-10-03T00:04:42.689Z,943.92
2022-10-03T00:05:43.305Z,943.93
2022-10-03T00:06:44.194Z,943.94
2022-10-03T00:07:44.409Z,943.91
2022-10-03T00:08:44.619Z,943.9
2022-10-03T00:09:44.907Z,943.92
2022-10-03T00:10:45.251Z,943.94
2022-10-03T00:11:45.500Z,943.94
2022-10-03T00:12:46.405Z,943.92
2022-10-03T00:13:47.401Z,943.95
2022-10-03T00:14:48.113Z,943.97
2022-10-03T00:15:49.076Z,943.95
2022-10-03T00:16:49.776Z,943.92
2022-10-03T00:17:50.393Z,943.94
2022-10-03T00:18:51.314Z,943.89
2022-10-03T00:19:51.507Z,943.91
2022-10-03T00:20:52.120Z,943.91
2022-10-03T00:21:52.740Z,943.93
2022-10-03T00:22:53.681Z,943.96
2022-10-03T00:23:54.316Z,943.95
2022-10-03T00:24:55.007Z,944
2022-10-03T00:25:55.625Z,944.04
2022-10-03T00:26:55.833Z,944.03
2022-10-03T00:27:56.755Z,944.05
2022-10-03T00:28:56.931Z,944.03
2022-10-03T00:29:57.145Z,944.05
2022-10-03T00:30:58.088Z,944.01
2022-10-03T00:31:59.106Z,944.04
2022-10-03T00:32:59.728Z,944.02
2022-10-03T00:33:59.936Z,944.06
2022-10-03T00:35:00.953Z,944.02
2022-10-03T00:36:01.148Z,944.04
2022-10-03T00:37:01.367Z,944.1
2022-10-03T00:38:02.312Z,944.09
2022-10-03T00:39:03.232Z,944.09
2022-10-03T00:40:03.871Z,944.16
2022-10-03T00:41:04.777Z,944.12
2022-10-03T00:42:05.008Z,944.17
2022-10-03T00:43:05.241Z,944.16
2022-10-03T00:44:05.434Z,944.13
2022-10-03T00:45:06.300Z,944.16
2022-10-03T00:46:07.390Z,944.13
2022-10-03T00:47:08.083Z,944.15
2022-10-03T00:48:08.272Z,944.15
2022-10-03T00:49:09.191Z,944.15
2022-10-03T00:50:09.386Z,944.22
2022-10-03T00:51:10.047Z,944.21
2022-10-03T00:52:10.964Z,944.21
2022-10-03T00:53:11.897Z,944.2
2022-10-03T00:54:12.187Z,944.22
2022-10-03T00:55:12.925Z,944.24
2022-10-03T00:56:13.555Z,944.2
2022-10-03T00:57:14.479Z,944.23
2022-10-03T00:58:15.386Z,944.24
2022-10-03T00:59:15.576Z,944.2
2022-10-03T01:00:15.911Z,944.23
2022-10-03T01:01:16.462Z,944.26
2022-10-03T01:02:16.832Z,944.24
2022-10-03T01:03:17.228Z,944.25
2022-10-03T01:04:18.203Z,944.26
2022-10-03T01:05:18.620Z,944.2
2022-10-03T01:06:19.509Z,944.23
2022-10-03T01:07:19.697Z,944.23
2022-10-03T01:08:20.624Z,944.21
2022-10-03T01:09:21.554Z,944.19
2022-10-03T01:10:21.746Z,944.17
2022-10-03T01:11:22.059Z,944.2
2022-10-03T01:12:22.389Z,944.22
2022-10-03T01:13:22.895Z,944.22
2022-10-03T01:14:23.789Z,944.22
2022-10-03T01:15:24.524Z,944.19
2022-10-03T01:16:25.288Z,944.18
2022-10-03T01:17:26.173Z,944.19
2022-10-03T01:18:26.790Z,944.21
2022-10-03T01:19:27.402Z,944.21
2022-10-03T01:20:28.294Z,944.2
2022-10-03T01:21:28.491Z,944.18
2022-10-03T01:22:29.043Z,944.2
2022-10-03T01:23:29.415Z,944.23
2022-10-03T01:24:29.628Z,944.21
2022-10-03T01:25:30.359Z,944.23
2022-10-03T01:26:31.008Z,944.26
2022-10-03T01:27:31.226Z,944.25
2022-10-03T01:28:31.936Z,944.25
2022-10-03T01:29:32.569Z,944.24
2022-10-03T01:30:33.182Z,944.26
2022-10-03T01:31:34.245Z,944.26
2022-10-03T01:32:34.770Z,944.26
2022-10-03T01:33:35.707Z,944.31
2022-10-03T01:34:35.905Z,944.28
2022-10-03T01:35:36.653Z,944.31
2022-10-03T01:36:37.265Z,944.31
2022-10-03T01:37:37.752Z,944.31
2022-10-03T01:38:38.718Z,944.32
2022-10-03T01:39:39.009Z,944.35
2022-10-03T01:40:39.638Z,944.34
2022-10-03T01:41:40.225Z,944.36
2022-10-03T01:42:40.307Z,944.34
2022-10-03T01:43:41.232Z,944.41
2022-10-03T01:44:41.724Z,944.42
2022-10-03T01:45:41.837Z,944.43
2022-10-03T01:46:42.113Z,944.43
2022-10-03T01:47:42.555Z,944.46
2022-10-03T01:48:43.166Z,944.43
2022-10-03T01:49:43.383Z,944.45
2022-10-03T01:50:44.316Z,944.44
2022-10-03T01:51:45.212Z,944.44
2022-10-03T01:52:46.131Z,944.51
2022-10-03T01:53:46.795Z,944.49
2022-10-03T01:54:47.804Z,944.5
2022-10-03T01:55:47.905Z,944.55
2022-10-03T01:56:48.820Z,944.57
2022-10-03T01:57:49.032Z,944.6
2022-10-03T01:58:49.936Z,944.59
2022-10-03T01:59:50.573Z,944.66
2022-10-03T02:00:50.842Z,944.67
2022-10-03T02:01:51.537Z,944.69
2022-10-03T02:02:51.695Z,944.71
2022-10-03T02:03:52.643Z,944.78
2022-10-03T02:04:53.131Z,944.75
2022-10-03T02:05:53.822Z,944.77
2022-10-03T02:06:54.016Z,944.77
2022-10-03T02:07:54.628Z,944.81
2022-10-03T02:08:55.547Z,944.8
2022-10-03T02:09:55.746Z,944.79
2022-10-03T02:10:55.956Z,944.82
2022-10-03T02:11:56.570Z,944.83
2022-10-03T02:12:56.783Z,944.81
2022-10-03T02:13:56.979Z,944.82
2022-10-03T02:14:57.870Z,944.85
2022-10-03T02:15:58.127Z,944.83
2022-10-03T02:16:58.608Z,944.81
2022-10-03T02:17:58.825Z,944.79
2022-10-03T02:18:59.742Z,944.77
2022-10-03T02:19:59.944Z,944.81
2022-10-03T02:21:00.595Z,944.79
2022-10-03T02:22:00.913Z,944.75
2022-10-03T02:23:01.554Z,944.79
2022-10-03T02:24:02.068Z,944.78
2022-10-03T02:25:02.292Z,944.79
2022-10-03T02:26:02.727Z,944.78
2022-10-03T02:27:03.334Z,944.8
2022-10-03T02:28:04.308Z,944.77
2022-10-03T02:29:04.656Z,944.79
2022-10-03T02:30:04.857Z,944.75
2022-10-03T02:31:05.493Z,944.7
2022-10-03T02:32:05.654Z,944.75
2022-10-03T02:33:06.589Z,944.73
2022-10-03T02:34:07.202Z,944.77
2022-10-03T02:35:08.123Z,944.76
2022-10-03T02:36:08.554Z,944.79
2022-10-03T02:37:09.176Z,944.78
2022-10-03T02:38:09.791Z,944.84
2022-10-03T02:39:10.730Z,944.81
2022-10-03T02:40:11.766Z,944.85
2022-10-03T02:41:12.700Z,944.89
2022-10-03T02:42:13.614Z,944.86
2022-10-03T02:43:14.135Z,944.91
2022-10-03T02:44:14.345Z,944.92
2022-10-03T02:45:14.561Z,944.87
2022-10-03T02:46:15.550Z,944.86
2022-10-03T02:47:16.191Z,944.89
2022-10-03T02:48:31.090Z,944.88
2022-10-03T02:49:17.710Z,944.89
2022-10-03T02:50:17.898Z,944.9
2022-10-03T02:51:18.515Z,944.94
2022-10-03T02:52:19.436Z,944.91
2022-10-03T02:53:20.070Z,944.92
2022-10-03T02:54:20.286Z,944.95
2022-10-03T02:55:20.774Z,944.95
2022-10-03T02:56:21.793Z,944.93
2022-10-03T02:57:22.008Z,945.01
2022-10-03T02:58:22.224Z,945.04
2022-10-03T02:59:22.421Z,945.01
2022-10-03T03:00:22.629Z,945.01
2022-10-03T03:01:22.926Z,945.03
2022-10-03T03:02:23.866Z,945.02
2022-10-03T03:03:23.975Z,945.02
2022-10-03T03:04:24.173Z,945.06
2022-10-03T03:05:25.092Z,945.05
2022-10-03T03:06:25.762Z,945.04
2022-10-03T03:07:26.672Z,945.05
2022-10-03T03:08:27.035Z,945.04
2022-10-03T03:09:27.557Z,945.08
2022-10-03T03:10:28.490Z,945.08
2022-10-03T03:11:29.385Z,945.1
2022-10-03T03:12:29.604Z,945.13
2022-10-03T03:13:30.226Z,945.03
2022-10-03T03:14:31.128Z,945.08
2022-10-03T03:15:31.739Z,945.06
2022-10-03T03:16:31.938Z,945.06
2022-10-03T03:17:32.905Z,945.04
2022-10-03T03:18:33.111Z,945.09
2022-10-03T03:19:34.023Z,945.07
2022-10-03T03:20:34.659Z,945.13
2022-10-03T03:21:34.847Z,945.15
2022-10-03T03:22:35.160Z,945.11
2022-10-03T03:23:35.771Z,945.08
2022-10-03T03:24:36.429Z,945.12
2022-10-03T03:25:36.634Z,945.1
2022-10-03T03:26:37.070Z,945.11
2022-10-03T03:27:37.690Z,945.11
2022-10-03T03:28:38.689Z,945.11
2022-10-03T03:29:39.621Z,945.15
2022-10-03T03:30:40.239Z,945.17
2022-10-03T03:31:41.166Z,945.2
2022-10-03T03:32:41.495Z,945.25
2022-10-03T03:33:42.408Z,945.25
2022-10-03T03:34:42.604Z,945.26
2022-10-03T03:35:43.495Z,945.29
2022-10-03T03:36:44.193Z,945.26
2022-10-03T03:37:45.103Z,945.29
2022-10-03T03:38:45.739Z,945.29
2022-10-03T03:39:46.384Z,945.29
2022-10-03T03:40:47.313Z,945.25
2022-10-03T03:41:47.627Z,945.29
2022-10-03T03:42:47.842Z,945.28
2022-10-03T03:43:48.754Z,945.25
2022-10-03T03:44:48.975Z,945.27
2022-10-03T03:45:49.269Z,945.27
2022-10-03T03:46:49.701Z,945.29
2022-10-03T03:47:50.600Z,945.32
2022-10-03T03:48:50.923Z,945.33
2022-10-03T03:49:51.562Z,945.32
2022-10-03T03:50:52.470Z,945.32
2022-10-03T03:51:53.390Z,945.33
2022-10-03T03:52:54.010Z,945.35
2022-10-03T03:53:54.200Z,945.36
2022-10-03T03:54:54.861Z,945.37
2022-10-03T03:55:55.495Z,945.39
2022-10-03T03:56:55.809Z,945.43
2022-10-03T03:57:56.160Z,945.43
2022-10-03T03:58:56.371Z,945.39
2022-10-03T03:59:56.901Z,945.43
2022-10-03T04:00:57.570Z,945.42
2022-10-03T04:01:58.623Z,945.45
2022-10-03T04:02:59.630Z,945.44
2022-10-03T04:04:00.546Z,945.45
2022-10-03T04:05:01.459Z,945.44
2022-10-03T04:06:02.376Z,945.46
2022-10-03T04:07:02.669Z,945.48
2022-10-03T04:08:03.672Z,945.48
2022-10-03T04:09:03.883Z,945.47
2022-10-03T04:10:04.099Z,945.51
2022-10-03T04:11:05.038Z,945.45
2022-10-03T04:12:05.949Z,945.43
2022-10-03T04:13:06.591Z,945.43
2022-10-03T04:14:07.506Z,945.46
2022-10-03T04:15:08.442Z,945.49
2022-10-03T04:16:09.339Z,945.51
2022-10-03T04:17:09.649Z,945.5
2022-10-03T04:18:10.568Z,945.49
2022-10-03T04:19:11.056Z,945.51
2022-10-03T04:20:11.254Z,945.45
2022-10-03T04:21:13.622Z,945.48
2022-10-03T04:22:11.766Z,945.5
2022-10-03T04:23:12.366Z,945.5
2022-10-03T04:24:12.583Z,945.48
2022-10-03T04:25:12.795Z,945.48
2022-10-03T04:26:12.988Z,945.45
2022-10-03T04:27:13.123Z,945.43
2022-10-03T04:28:13.777Z,945.46
2022-10-03T04:29:14.555Z,945.46
2022-10-03T04:30:15.185Z,945.47
2022-10-03T04:31:15.440Z,945.45
2022-10-03T04:32:15.738Z,945.4
2022-10-03T04:33:16.361Z,945.42
2022-10-03T04:34:16.976Z,945.39
2022-10-03T04:35:17.163Z,945.39
2022-10-03T04:36:18.057Z,945.43
2022-10-03T04:37:18.775Z,945.42
2022-10-03T04:38:19.424Z,945.42
2022-10-03T04:39:20.335Z,945.41
2022-10-03T04:40:21.265Z,945.42
2022-10-03T04:41:21.514Z,945.43
2022-10-03T04:42:22.496Z,945.43
2022-10-03T04:43:22.695Z,945.41
2022-10-03T04:44:23.630Z,945.4
2022-10-03T04:45:24.150Z,945.4
2022-10-03T04:46:25.059Z,945.4
2022-10-03T04:47:26.053Z,945.37
2022-10-03T04:48:26.240Z,945.38
2022-10-03T04:49:26.730Z,945.34
2022-10-03T04:50:26.920Z,945.35
2022-10-03T04:51:27.531Z,945.33
2022-10-03T04:52:28.469Z,945.35
2022-10-03T04:53:29.391Z,945.38
2022-10-03T04:54:30.309Z,945.39
2022-10-03T04:55:31.238Z,945.34
2022-10-03T04:56:32.158Z,945.32
2022-10-03T04:57:32.473Z,945.34
2022-10-03T04:58:33.406Z,945.33
2022-10-03T04:59:34.028Z,945.33
2022-10-03T05:00:34.273Z,945.36
2022-10-03T05:01:35.110Z,945.34
2022-10-03T05:02:35.979Z,945.34
2022-10-03T05:03:36.198Z,945.35
2022-10-03T05:04:37.094Z,945.33
2022-10-03T05:05:38.034Z,945.33
2022-10-03T05:06:38.947Z,945.33
2022-10-03T05:07:39.935Z,945.32
2022-10-03T05:08:40.571Z,945.34
2022-10-03T05:09:41.468Z,945.32
2022-10-03T05:10:41.657Z,945.35
2022-10-03T05:11:42.689Z,945.28
2022-10-03T05:12:43.310Z,945.3
2022-10-03T05:13:43.920Z,945.27
2022-10-03T05:14:44.136Z,945.26
2022-10-03T05:15:44.663Z,945.32
2022-10-03T05:16:45.634Z,945.3
2022-10-03T05:17:46.038Z,945.31
2022-10-03T05:18:46.627Z,945.34
2022-10-03T05:19:46.837Z,945.32
2022-10-03T05:20:47.747Z,945.38
2022-10-03T05:21:48.376Z,945.39
2022-10-03T05:22:48.591Z,945.43
2022-10-03T05:23:49.229Z,945.4
2022-10-03T05:24:49.426Z,945.4
2022-10-03T05:25:49.937Z,945.43
2022-10-03T05:26:52.050Z,945.41
2022-10-03T05:27:53.090Z,945.46
2022-10-03T05:28:53.370Z,945.46
2022-10-03T05:29:54.009Z,945.44
2022-10-03T05:30:54.342Z,945.47
2022-10-03T05:31:54.407Z,945.54
2022-10-03T05:32:55.230Z,945.51
2022-10-03T05:33:55.922Z,945.55
2022-10-03T05:34:56.234Z,945.52
2022-10-03T05:35:56.446Z,945.54
2022-10-03T05:36:57.061Z,945.56
2022-10-03T05:37:57.785Z,945.5
2022-10-03T05:38:57.982Z,945.57
2022-10-03T05:39:58.886Z,945.59
2022-10-03T05:40:59.971Z,945.59
2022-10-03T05:42:21.334Z,945.58
2022-10-03T05:43:01.254Z,945.61
2022-10-03T05:44:01.879Z,945.64
2022-10-03T05:45:02.495Z,945.63
2022-10-03T05:46:03.206Z,945.67
2022-10-03T05:47:03.882Z,945.64
2022-10-03T05:48:04.620Z,945.65
2022-10-03T05:49:04.842Z,945.67
2022-10-03T05:50:09.599Z,945.69
2022-10-03T05:51:05.814Z,945.65
2022-10-03T05:52:06.430Z,945.67
2022-10-03T05:53:07.326Z,945.67
2022-10-03T05:54:08.237Z,945.68
2022-10-03T05:55:09.129Z,945.67
2022-10-03T05:56:09.351Z,945.68
2022-10-03T05:57:10.271Z,945.66
2022-10-03T05:58:10.993Z,945.65
2022-10-03T05:59:11.609Z,945.67
2022-10-03T06:00:12.524Z,945.7
2022-10-03T06:01:12.828Z,945.71
2022-10-03T06:02:13.097Z,945.7
2022-10-03T06:03:14.007Z,945.69
2022-10-03T06:04:14.487Z,945.71
2022-10-03T06:05:14.703Z,945.76
2022-10-03T06:06:15.188Z,945.76
2022-10-03T06:07:15.943Z,945.8
2022-10-03T06:08:16.384Z,945.78
2022-10-03T06:09:17.321Z,945.81
2022-10-03T06:10:18.235Z,945.84
2022-10-03T06:11:18.570Z,945.82
2022-10-03T06:12:18.799Z,945.83
2022-10-03T06:13:19.290Z,945.89
2022-10-03T06:14:20.188Z,945.87
2022-10-03T06:15:20.509Z,945.85
2022-10-03T06:16:20.753Z,945.9
2022-10-03T06:17:21.063Z,945.86
2022-10-03T06:18:21.432Z,945.89
2022-10-03T06:19:21.673Z,945.87
2022-10-03T06:20:22.165Z,945.97
2022-10-03T06:21:23.204Z,945.9
2022-10-03T06:22:23.402Z,945.91
2022-10-03T06:23:24.318Z,945.92
2022-10-03T06:24:24.930Z,945.91
2022-10-03T06:25:25.848Z,945.98
2022-10-03T06:26:26.209Z,945.95
2022-10-03T06:27:26.418Z,945.95
2022-10-03T06:28:27.386Z,945.98
2022-10-03T06:29:28.339Z,946
2022-10-03T06:30:28.699Z,945.98
2022-10-03T06:31:31.990Z,945.95
2022-10-03T06:32:29.944Z,946.04
2022-10-03T06:33:30.985Z,945.97
2022-10-03T06:34:31.606Z,946
2022-10-03T06:35:32.095Z,945.98
2022-10-03T06:36:32.309Z,946.01
2022-10-03T06:37:32.804Z,946.03
2022-10-03T06:38:33.841Z,946.01
2022-10-03T06:39:34.084Z,946.02
2022-10-03T06:40:34.154Z,946.02
2022-10-03T06:41:35.088Z,946.05
2022-10-03T06:42:36.146Z,946.06
2022-10-03T06:43:36.365Z,946.1
2022-10-03T06:44:36.991Z,946.1
2022-10-03T06:45:37.186Z,946.11
2022-10-03T06:46:38.215Z,946.15
2022-10-03T06:47:39.222Z,946.22
2022-10-03T06:48:39.936Z,946.23
2022-10-03T06:49:40.424Z,946.22
2022-10-03T06:50:41.043Z,946.23
2022-10-03T06:51:41.815Z,946.24
2022-10-03T06:52:41.933Z,946.24
2022-10-03T06:53:42.559Z,946.28
2022-10-03T06:54:43.475Z,946.26
2022-10-03T06:55:43.677Z,946.26
2022-10-03T06:56:49.066Z,946.25
2022-10-03T06:57:44.936Z,946.26
2022-10-03T06:58:45.060Z,946.28
2022-10-03T06:59:45.251Z,946.25
2022-10-03T07:00:46.163Z,946.24
2022-10-03T07:01:46.955Z,946.27
2022-10-03T07:02:47.116Z,946.27
2022-10-03T07:03:47.906Z,946.22
2022-10-03T07:04:48.519Z,946.26
2022-10-03T07:05:49.444Z,946.25
2022-10-03T07:06:49.658Z,946.26
2022-10-03T07:07:50.156Z,946.28
2022-10-03T07:08:51.163Z,946.31
2022-10-03T07:09:51.797Z,946.34
2022-10-03T07:10:52.433Z,946.36
2022-10-03T07:11:52.802Z,946.37
2022-10-03T07:12:53.483Z,946.36
2022-10-03T07:13:54.527Z,946.37
2022-10-03T07:14:54.749Z,946.37
2022-10-03T07:16:55.663Z,946.4
2022-10-03T07:17:55.789Z,946.39
2022-10-03T07:18:56.802Z,946.4
2022-10-03T07:19:57.098Z,946.39
2022-10-03T07:20:58.044Z,946.4
2022-10-03T07:21:58.242Z,946.42
2022-10-03T07:22:58.455Z,946.4
2022-10-03T07:23:59.089Z,946.43
2022-10-03T07:24:59.722Z,946.41
2022-10-03T07:25:59.915Z,946.47
2022-10-03T07:27:00.847Z,946.45
2022-10-03T07:28:01.812Z,946.48
2022-10-03T07:29:01.964Z,946.49
2022-10-03T07:30:02.888Z,946.49
2022-10-03T07:31:03.822Z,946.51
2022-10-03T07:32:03.984Z,946.49
2022-10-03T07:33:04.523Z,946.51
2022-10-03T07:34:05.146Z,946.53
2022-10-03T07:35:06.043Z,946.54
2022-10-03T07:36:06.949Z,946.56
2022-10-03T07:37:07.885Z,946.5
2022-10-03T07:38:08.801Z,946.52
2022-10-03T07:39:09.504Z,946.54
2022-10-03T07:40:10.121Z,946.51
2022-10-03T07:41:10.340Z,946.55
2022-10-03T07:42:11.006Z,946.61
2022-10-03T07:43:11.497Z,946.59
2022-10-03T07:44:12.413Z,946.62
2022-10-03T07:45:12.732Z,946.62
2022-10-03T07:46:13.544Z,946.62
2022-10-03T07:47:14.030Z,946.64
2022-10-03T07:48:14.691Z,946.65
2022-10-03T07:49:18.341Z,946.66
2022-10-03T07:50:15.424Z,946.63
2022-10-03T07:51:15.639Z,946.68
2022-10-03T07:52:16.276Z,946.68
2022-10-03T07:53:16.580Z,946.68
2022-10-03T07:54:17.514Z,946.7
2022-10-03T07:55:18.430Z,946.69
2022-10-03T07:56:18.626Z,946.71
2022-10-03T07:57:18.843Z,946.68
2022-10-03T07:58:19.065Z,946.67
2022-10-03T07:59:20.085Z,946.7
2022-10-03T08:00:20.405Z,946.7
2022-10-03T08:01:21.307Z,946.69
2022-10-03T08:02:22.321Z,946.69
2022-10-03T08:03:23.159Z,946.71
2022-10-03T08:04:24.106Z,946.71
2022-10-03T08:05:25.025Z,946.7
2022-10-03T08:06:26.069Z,946.74
2022-10-03T08:07:26.258Z,946.75
2022-10-03T08:08:26.874Z,946.75
2022-10-03T08:09:27.443Z,946.74
2022-10-03T08:10:27.659Z,946.73
2022-10-03T08:11:28.475Z,946.75
2022-10-03T08:12:28.760Z,946.74
2022-10-03T08:13:28.983Z,946.76
2022-10-03T08:14:29.578Z,946.73
2022-10-03T08:15:30.221Z,946.72
2022-10-03T08:16:30.377Z,946.74
2022-10-03T08:17:31.291Z,946.76
2022-10-03T08:18:31.537Z,946.74
2022-10-03T08:19:31.856Z,946.74
2022-10-03T08:20:32.905Z,946.77
2022-10-03T08:21:33.119Z,946.75
2022-10-03T08:22:33.768Z,946.75
2022-10-03T08:23:33.964Z,946.74
2022-10-03T08:24:34.904Z,946.77
2022-10-03T08:25:35.123Z,946.77
2022-10-03T08:26:36.024Z,946.79
2022-10-03T08:27:36.243Z,946.77
2022-10-03T08:28:37.321Z,946.81
2022-10-03T08:29:37.642Z,946.8
2022-10-03T08:30:38.263Z,946.82
2022-10-03T08:31:39.019Z,946.84
2022-10-03T08:32:39.129Z,946.83
2022-10-03T08:33:39.771Z,946.84
2022-10-03T08:34:40.687Z,946.85
2022-10-03T08:35:41.608Z,946.85
2022-10-03T08:36:41.923Z,946.83
2022-10-03T08:37:42.411Z,946.79
2022-10-03T08:38:43.311Z,946.78
2022-10-03T08:39:44.035Z,946.81
2022-10-03T08:40:44.384Z,946.77
2022-10-03T08:41:45.024Z,946.77
2022-10-03T08:42:46.047Z,946.78
2022-10-03T08:43:46.548Z,946.77
2022-10-03T08:44:47.179Z,946.78
2022-10-03T08:45:47.519Z,946.78
2022-10-03T08:46:47.924Z,946.81
2022-10-03T08:47:48.372Z,946.83
2022-10-03T08:48:48.913Z,946.86
2022-10-03T08:49:49.611Z,946.89
2022-10-03T08:50:49.957Z,946.88
2022-10-03T08:51:50.877Z,946.89
2022-10-03T08:52:51.093Z,946.91
2022-10-03T08:53:51.290Z,946.93
2022-10-03T08:54:51.503Z,946.93
2022-10-03T08:55:52.425Z,946.93
2022-10-03T08:56:52.642Z,947
2022-10-03T08:57:53.283Z,946.98
2022-10-03T08:58:53.478Z,946.95
2022-10-03T08:59:54.473Z,946.95
2022-10-03T09:00:54.668Z,946.98
2022-10-03T09:01:55.017Z,946.96
2022-10-03T09:03:20.401Z,946.95
2022-10-03T09:03:55.018Z,946.94
2022-10-03T09:04:55.964Z,946.92
2022-10-03T09:05:56.886Z,946.9
2022-10-03T09:07:58.112Z,946.93
2022-10-03T09:08:59.008Z,946.97
2022-10-03T09:09:59.423Z,946.92
2022-10-03T09:10:59.689Z,946.9
2022-10-03T09:12:00.589Z,946.91
2022-10-03T09:13:01.543Z,946.89
2022-10-03T09:14:02.472Z,946.9
2022-10-03T09:15:02.821Z,946.88
2022-10-03T09:16:03.474Z,946.84
2022-10-03T09:17:03.543Z,946.87
2022-10-03T09:18:03.882Z,946.87
2022-10-03T09:19:04.100Z,946.86
2022-10-03T09:20:04.236Z,946.88
2022-10-03T09:21:05.134Z,946.88
2022-10-03T09:22:06.035Z,946.85
2022-10-03T09:23:06.375Z,946.84
2022-10-03T09:24:07.312Z,946.86
2022-10-03T09:25:07.953Z,946.85
2022-10-03T09:26:08.149Z,946.9
2022-10-03T09:27:08.488Z,946.92
2022-10-03T09:28:09.497Z,946.92
2022-10-03T09:29:10.434Z,946.91
2022-10-03T09:30:11.134Z,946.9
2022-10-03T09:31:11.521Z,946.92
2022-10-03T09:32:12.455Z,946.89
2022-10-03T09:33:12.763Z,946.91
2022-10-03T09:34:13.679Z,946.91
2022-10-03T09:35:14.214Z,946.94
2022-10-03T09:36:14.830Z,946.92
2022-10-03T09:37:15.049Z,946.88
2022-10-03T09:38:15.244Z,946.92
2022-10-03T09:39:16.167Z,946.91
2022-10-03T09:40:17.289Z,946.93
2022-10-03T09:41:17.585Z,946.93
2022-10-03T09:42:18.583Z,946.95
2022-10-03T09:43:19.492Z,946.92
2022-10-03T09:44:19.687Z,946.93
2022-10-03T09:45:19.888Z,946.94
2022-10-03T09:46:20.823Z,946.92
2022-10-03T09:47:21.203Z,946.93
2022-10-03T09:48:21.839Z,946.94
2022-10-03T09:49:22.461Z,946.92
2022-10-03T09:50:22.790Z,946.9
2022-10-03T09:51:23.407Z,946.91
2022-10-03T09:52:23.990Z,946.88
2022-10-03T09:53:24.185Z,946.9
2022-10-03T09:54:25.105Z,946.87
2022-10-03T09:55:25.296Z,946.86
2022-10-03T09:56:26.262Z,946.84
2022-10-03T09:57:26.929Z,946.83
2022-10-03T09:58:27.165Z,946.86
2022-10-03T09:59:27.357Z,946.84
2022-10-03T10:00:28.371Z,946.83
2022-10-03T10:01:28.878Z,946.82
2022-10-03T10:02:29.841Z,946.82
2022-10-03T10:03:30.119Z,946.83
2022-10-03T10:04:50.475Z,946.79
2022-10-03T10:05:31.212Z,946.82
2022-10-03T10:06:31.849Z,946.79
2022-10-03T10:07:32.758Z,946.82
2022-10-03T10:08:33.097Z,946.82
2022-10-03T10:09:33.291Z,946.82
2022-10-03T10:10:34.287Z,946.79
2022-10-03T10:11:35.597Z,946.82
2022-10-03T10:12:35.520Z,946.77
2022-10-03T10:13:50.002Z,946.74
2022-10-03T10:14:37.081Z,946.76
2022-10-03T10:15:38.001Z,946.76
2022-10-03T10:16:40.055Z,946.75
2022-10-03T10:17:39.522Z,946.69
2022-10-03T10:18:39.722Z,946.71
2022-10-03T10:19:40.401Z,946.75
2022-10-03T10:20:40.755Z,946.75
2022-10-03T10:21:41.290Z,946.73
2022-10-03T10:22:42.211Z,946.75
2022-10-03T10:23:42.705Z,946.82
2022-10-03T10:24:43.025Z,946.81
2022-10-03T10:25:43.375Z,946.8
2022-10-03T10:26:44.699Z,946.79
2022-10-03T10:27:45.267Z,946.75
2022-10-03T10:28:46.222Z,946.75
2022-10-03T10:29:46.707Z,946.81
2022-10-03T10:30:47.164Z,946.81
2022-10-03T10:31:48.250Z,946.82
2022-10-03T10:32:48.361Z,946.79
2022-10-03T10:33:48.992Z,946.84
2022-10-03T10:34:49.217Z,946.8
2022-10-03T10:35:49.424Z,946.83
2022-10-03T10:36:49.669Z,946.77
2022-10-03T10:37:50.589Z,946.78
2022-10-03T10:38:50.797Z,946.81
2022-10-03T10:39:51.714Z,946.74
2022-10-03T10:40:52.737Z,946.77
2022-10-03T10:41:53.776Z,946.78
2022-10-03T10:42:53.999Z,946.76
2022-10-03T10:43:55.058Z,946.72
2022-10-03T10:44:55.981Z,946.71
2022-10-03T10:45:56.222Z,946.76
2022-10-03T10:46:56.798Z,946.69
2022-10-03T10:47:57.641Z,946.65
2022-10-03T10:49:02.916Z,946.69
2022-10-03T10:49:58.931Z,946.66
2022-10-03T10:50:59.508Z,946.65
2022-10-03T10:52:00.119Z,946.63
2022-10-03T10:53:00.764Z,946.65
2022-10-03T10:54:01.118Z,946.62
2022-10-03T10:55:01.353Z,946.58
2022-10-03T10:56:02.277Z,946.61
2022-10-03T10:57:02.493Z,946.59
2022-10-03T10:58:03.001Z,946.59
2022-10-03T10:59:03.218Z,946.6
2022-10-03T11:00:04.126Z,946.57
2022-10-03T11:01:05.227Z,946.6
2022-10-03T11:02:05.744Z,946.54
2022-10-03T11:03:06.088Z,946.54
2022-10-03T11:04:07.062Z,946.55
2022-10-03T11:05:07.259Z,946.51
2022-10-03T11:06:08.169Z,946.52
2022-10-03T11:07:08.791Z,946.49
2022-10-03T11:08:09.728Z,946.5
2022-10-03T11:09:10.358Z,946.47
2022-10-03T11:10:10.855Z,946.42
2022-10-03T11:11:11.578Z,946.44
2022-10-03T11:12:12.203Z,946.43
2022-10-03T11:13:13.126Z,946.45
2022-10-03T11:14:14.089Z,946.44
2022-10-03T11:15:15.116Z,946.46
2022-10-03T11:16:15.429Z,946.47
2022-10-03T11:17:15.758Z,946.47
2022-10-03T11:18:16.091Z,946.47
2022-10-03T11:19:16.416Z,946.49
2022-10-03T11:20:17.034Z,946.49
2022-10-03T11:21:17.633Z,946.45
2022-10-03T11:22:17.873Z,946.45
2022-10-03T11:23:18.073Z,946.4
2022-10-03T11:24:18.711Z,946.41
2022-10-03T11:25:19.054Z,946.42
2022-10-03T11:26:19.379Z,946.4
2022-10-03T11:27:19.979Z,946.44
2022-10-03T11:28:24.025Z,946.44
2022-10-03T11:29:21.655Z,946.46
2022-10-03T11:30:22.262Z,946.44
2022-10-03T11:31:23.386Z,946.41
2022-10-03T11:32:24.025Z,946.41
2022-10-03T11:33:24.942Z,946.42
2022-10-03T11:34:25.388Z,946.41
2022-10-03T11:35:26.004Z,946.43
2022-10-03T11:36:26.868Z,946.36
2022-10-03T11:37:27.966Z,946.42
2022-10-03T11:38:28.885Z,946.4
2022-10-03T11:39:29.087Z,946.37
2022-10-03T11:40:29.984Z,946.41
2022-10-03T11:41:30.373Z,946.42
2022-10-03T11:42:30.998Z,946.4
2022-10-03T11:43:31.635Z,946.39
2022-10-03T11:44:31.969Z,946.39
2022-10-03T11:45:32.312Z,946.4
2022-10-03T11:46:32.738Z,946.38
2022-10-03T11:47:33.782Z,946.38
2022-10-03T11:48:34.524Z,946.35
2022-10-03T11:49:34.772Z,946.33
2022-10-03T11:50:35.095Z,946.37
2022-10-03T11:51:36.112Z,946.33
2022-10-03T11:52:36.923Z,946.35
2022-10-03T11:53:37.269Z,946.38
2022-10-03T11:54:37.555Z,946.39
2022-10-03T11:55:38.455Z,946.33
2022-10-03T11:56:39.603Z,946.37
2022-10-03T11:57:40.041Z,946.35
2022-10-03T11:58:40.935Z,946.37
2022-10-03T11:59:41.881Z,946.3
2022-10-03T12:00:42.066Z,946.29
2022-10-03T12:01:42.664Z,946.26
2022-10-03T12:02:43.601Z,946.31
2022-10-03T12:03:44.171Z,946.3
2022-10-03T12:04:44.696Z,946.31
2022-10-03T12:05:45.618Z,946.3
2022-10-03T12:06:46.239Z,946.32
2022-10-03T12:07:46.630Z,946.29
2022-10-03T12:08:47.258Z,946.34
2022-10-03T12:09:47.878Z,946.34
2022-10-03T12:10:48.504Z,946.37
2022-10-03T12:11:48.777Z,946.34
2022-10-03T12:12:49.399Z,946.36
2022-10-03T12:13:50.305Z,946.39
2022-10-03T12:14:50.772Z,946.37
2022-10-03T12:15:51.261Z,946.39
2022-10-03T12:16:52.409Z,946.42
2022-10-03T12:17:52.601Z,946.43
2022-10-03T12:18:52.828Z,946.46
2022-10-03T12:19:53.452Z,946.45
2022-10-03T12:20:54.133Z,946.45
2022-10-03T12:21:54.954Z,946.41
2022-10-03T12:22:55.597Z,946.37
2022-10-03T12:23:56.223Z,946.36
2022-10-03T12:24:57.125Z,946.35
2022-10-03T12:25:57.751Z,946.3
2022-10-03T12:26:58.084Z,946.31
2022-10-03T12:27:58.460Z,946.35
2022-10-03T12:28:59.370Z,946.34
2022-10-03T12:30:00.349Z,946.3
2022-10-03T12:31:00.969Z,946.29
2022-10-03T12:32:01.238Z,946.24
2022-10-03T12:33:01.501Z,946.24
2022-10-03T12:34:02.404Z,946.25
2022-10-03T12:35:02.904Z,946.23
2022-10-03T12:36:03.837Z,946.25
2022-10-03T12:37:04.784Z,946.23
2022-10-03T12:38:05.327Z,946.24
2022-10-03T12:39:05.529Z,946.24
2022-10-03T12:40:06.182Z,946.28
2022-10-03T12:41:07.095Z,946.28